createdAt,value
2023-02-04T00:00:37.620Z,22.38
2023-02-04T00:03:06.362Z,23.15
2023-02-04T00:05:34.572Z,22.35
2023-02-04T00:08:03.912Z,21.77
2023-02-04T00:10:32.310Z,20.88
2023-02-04T00:13:00.644Z,22.92
2023-02-04T00:15:30.805Z,21.23
2023-02-04T00:17:58.787Z,21.70
2023-02-04T00:20:26.933Z,21.92
2023-02-04T00:22:56.517Z,23.02
2023-02-04T00:25:24.645Z,22.20
2023-02-04T00:27:52.788Z,21.60
2023-02-04T00:30:21.177Z,21.33
2023-02-04T00:32:54.710Z,20.92
2023-02-04T00:35:23.255Z,20.67
2023-02-04T00:37:51.598Z,20.73
2023-02-04T00:40:20.009Z,21.52
2023-02-04T00:42:48.054Z,21.20
2023-02-04T00:45:16.101Z,21.88
2023-02-04T00:47:44.132Z,21.38
2023-02-04T00:50:13.492Z,21.38
2023-02-04T00:52:41.664Z,21.10
2023-02-04T00:55:12.324Z,20.73
2023-02-04T00:57:40.408Z,21.40
2023-02-04T01:00:09.635Z,21.30
2023-02-04T01:02:38.947Z,20.73
2023-02-04T01:05:07.594Z,20.50
2023-02-04T01:07:37.298Z,20.83
2023-02-04T01:10:06.042Z,21.20
2023-02-04T01:12:34.232Z,20.55
2023-02-04T01:15:02.531Z,20.75
2023-02-04T01:17:30.811Z,21.08
2023-02-04T01:19:59.028Z,21.00
2023-02-04T01:22:27.063Z,20.65
2023-02-04T01:24:56.457Z,21.48
2023-02-04T01:27:24.647Z,21.15
2023-02-04T01:29:52.716Z,20.90
2023-02-04T01:32:20.809Z,21.73
2023-02-04T01:34:48.886Z,20.90
2023-02-04T01:37:17.991Z,21.00
2023-02-04T01:39:46.067Z,20.38
2023-02-04T01:42:15.586Z,20.17
2023-02-04T01:44:43.940Z,21.15
2023-02-04T01:47:12.424Z,20.63
2023-02-04T01:49:40.804Z,20.63
2023-02-04T01:52:10.260Z,20.55
2023-02-04T01:54:39.201Z,20.23
2023-02-04T01:57:10.598Z,20.65
2023-02-04T01:59:42.453Z,19.95
2023-02-04T02:02:41.885Z,20.58
2023-02-04T02:05:11.828Z,20.33
2023-02-04T02:07:40.337Z,20.85
2023-02-04T02:10:10.818Z,20.88
2023-02-04T02:12:39.096Z,21.05
2023-02-04T02:15:10.130Z,21.67
2023-02-04T02:17:38.746Z,21.10
2023-02-04T02:20:12.308Z,20.88
2023-02-04T02:22:48.217Z,20.48
2023-02-04T02:25:17.974Z,21.42
2023-02-04T02:27:46.499Z,21.20
2023-02-04T02:30:17.817Z,20.83
2023-02-04T02:32:47.332Z,20.85
2023-02-04T02:35:16.303Z,20.50
2023-02-04T02:37:44.771Z,21.40
2023-02-04T02:40:14.243Z,20.67
2023-02-04T02:42:44.984Z,20.50
2023-02-04T02:45:19.798Z,21.55
2023-02-04T02:47:47.877Z,21.67
2023-02-04T02:50:20.430Z,21.73
2023-02-04T02:52:48.744Z,21.70
2023-02-04T02:55:19.283Z,21.23
2023-02-04T02:57:50.343Z,21.65
2023-02-04T03:00:21.069Z,21.10
2023-02-04T03:02:55.225Z,20.95
2023-02-04T03:05:23.620Z,22.20
2023-02-04T03:07:51.886Z,21.48
2023-02-04T03:10:20.216Z,21.85
2023-02-04T03:12:49.958Z,22.80
2023-02-04T03:15:18.163Z,22.10
2023-02-04T03:17:47.145Z,21.45
2023-02-04T03:20:16.461Z,22.75
2023-02-04T03:22:44.469Z,21.67
2023-02-04T03:25:12.590Z,22.23
2023-02-04T03:27:40.782Z,21.73
2023-02-04T03:30:11.336Z,21.80
2023-02-04T03:32:39.413Z,22.42
2023-02-04T03:35:07.756Z,22.73
2023-02-04T03:37:35.738Z,22.65
2023-02-04T03:40:04.659Z,22.65
2023-02-04T03:42:35.976Z,22.15
2023-02-04T03:45:04.213Z,22.58
2023-02-04T03:47:33.804Z,23.02
2023-02-04T03:50:03.942Z,22.50
2023-02-04T03:52:32.008Z,22.30
2023-02-04T03:54:59.953Z,22.90
2023-02-04T03:57:28.026Z,22.60
2023-02-04T03:59:58.533Z,22.77
2023-02-04T04:02:26.579Z,23.23
2023-02-04T04:04:56.163Z,22.35
2023-02-04T04:07:24.105Z,21.98
2023-02-04T04:09:52.148Z,21.92
2023-02-04T04:12:22.488Z,22.20
2023-02-04T04:14:50.484Z,22.63
2023-02-04T04:17:18.640Z,21.13
2023-02-04T04:19:47.018Z,23.13
2023-02-04T04:22:16.558Z,21.73
2023-02-04T04:24:44.634Z,22.23
2023-02-04T04:27:12.622Z,22.70
2023-02-04T04:29:40.842Z,22.67
2023-02-04T04:32:09.699Z,22.25
2023-02-04T04:34:38.121Z,21.70
2023-02-04T04:37:06.700Z,22.15
2023-02-04T04:39:36.224Z,22.40
2023-02-04T04:42:04.540Z,22.05
2023-02-04T04:44:32.884Z,21.83
2023-02-04T04:47:00.893Z,21.15
2023-02-04T04:49:29.030Z,21.63
2023-02-04T04:51:57.130Z,23.10
2023-02-04T04:54:25.156Z,22.10
2023-02-04T04:56:54.625Z,22.17
2023-02-04T04:59:22.498Z,22.25
2023-02-04T05:01:50.433Z,22.77
2023-02-04T05:04:18.678Z,21.98
2023-02-04T05:06:46.685Z,22.42
2023-02-04T05:09:15.274Z,22.85
2023-02-04T05:11:43.218Z,22.25
2023-02-04T05:14:12.878Z,22.05
2023-02-04T05:16:40.983Z,22.92
2023-02-04T05:19:09.089Z,23.45
2023-02-04T05:21:37.164Z,22.55
2023-02-04T05:24:06.531Z,22.80
2023-02-04T05:26:34.629Z,22.25
2023-02-04T05:29:02.791Z,22.90
2023-02-04T05:31:32.705Z,22.67
2023-02-04T05:34:00.717Z,22.52
2023-02-04T05:36:28.970Z,23.10
2023-02-04T05:38:57.171Z,22.25
2023-02-04T05:41:25.287Z,22.63
2023-02-04T05:43:53.379Z,22.42
2023-02-04T05:46:21.761Z,22.13
2023-02-04T05:48:51.496Z,23.13
2023-02-04T05:51:19.391Z,22.90
2023-02-04T05:53:47.439Z,22.65
2023-02-04T05:56:15.457Z,23.05
2023-02-04T05:58:43.570Z,22.65
2023-02-04T06:01:11.666Z,22.95
2023-02-04T06:03:39.836Z,22.60
2023-02-04T06:06:12.042Z,22.33
2023-02-04T06:08:40.361Z,22.05
2023-02-04T06:11:08.527Z,22.73
2023-02-04T06:13:36.704Z,22.38
2023-02-04T06:16:08.027Z,21.98
2023-02-04T06:18:35.954Z,22.98
2023-02-04T06:21:04.912Z,23.35
2023-02-04T06:23:34.707Z,23.13
2023-02-04T06:26:02.844Z,22.75
2023-02-04T06:28:33.986Z,23.50
2023-02-04T06:31:02.119Z,23.33
2023-02-04T06:33:30.510Z,22.33
2023-02-04T06:35:58.531Z,23.17
2023-02-04T06:38:26.715Z,22.88
2023-02-04T06:40:56.215Z,22.10
2023-02-04T06:43:25.489Z,23.17
2023-02-04T06:45:53.485Z,23.08
2023-02-04T07:18:04.405Z,22.10
2023-02-04T07:20:34.865Z,22.42
2023-02-04T07:23:03.322Z,22.58
2023-02-04T07:25:31.662Z,23.08
2023-02-04T07:28:01.874Z,21.98
2023-02-04T07:30:32.296Z,22.38
2023-02-04T07:33:00.573Z,21.95
2023-02-04T07:35:29.950Z,23.20
2023-02-04T07:37:58.317Z,21.95
2023-02-04T07:40:26.273Z,21.92
2023-02-04T07:42:54.418Z,21.88
2023-02-04T07:45:23.006Z,22.70
2023-02-04T07:47:51.114Z,23.10
2023-02-04T07:50:19.532Z,22.08
2023-02-04T07:52:49.026Z,22.42
2023-02-04T07:55:17.254Z,22.77
2023-02-04T07:57:45.243Z,23.15
2023-02-04T08:00:16.323Z,22.05
2023-02-04T08:02:44.352Z,22.55
2023-02-04T08:05:12.612Z,22.42
2023-02-04T08:07:42.698Z,22.92
2023-02-04T08:10:13.523Z,23.05
2023-02-04T08:12:41.650Z,22.92
2023-02-04T08:15:10.428Z,22.63
2023-02-04T08:17:38.563Z,23.10
2023-02-04T08:20:07.050Z,23.42
2023-02-04T08:22:35.412Z,24.50
2023-02-04T08:25:03.732Z,23.85
2023-02-04T08:27:33.483Z,23.75
2023-02-04T08:30:01.430Z,23.15
2023-02-04T08:32:33.926Z,24.13
2023-02-04T08:35:01.906Z,24.98
2023-02-04T08:37:30.184Z,22.65
2023-02-04T08:39:58.353Z,24.00
2023-02-04T08:42:26.442Z,25.25
2023-02-04T08:44:56.139Z,24.17
2023-02-04T08:47:24.186Z,25.25
2023-02-04T08:49:52.445Z,25.55
2023-02-04T08:52:20.784Z,25.83
2023-02-04T08:54:48.736Z,25.15
2023-02-04T08:57:16.826Z,24.60
2023-02-04T08:59:45.964Z,25.08
2023-02-04T09:02:15.487Z,26.98
2023-02-04T09:04:43.671Z,26.48
2023-02-04T09:07:12.230Z,26.75
2023-02-04T09:09:40.289Z,25.25
2023-02-04T09:12:08.386Z,26.00
2023-02-04T09:14:39.393Z,26.08
2023-02-04T09:17:07.654Z,25.50
2023-02-04T09:19:36.916Z,25.13
2023-02-04T09:22:04.833Z,26.77
2023-02-04T09:24:33.440Z,26.30
2023-02-04T09:27:01.415Z,26.17
2023-02-04T09:29:29.428Z,25.85
2023-02-04T09:31:58.258Z,25.77
2023-02-04T09:34:26.391Z,25.20
2023-02-04T09:36:55.778Z,25.70
2023-02-04T09:39:23.836Z,25.63
2023-02-04T09:41:54.075Z,24.58
2023-02-04T09:44:25.703Z,24.15
2023-02-04T09:46:55.651Z,22.75
2023-02-04T09:49:24.060Z,23.13
2023-02-04T09:51:52.605Z,24.27
2023-02-04T09:54:23.937Z,23.35
2023-02-04T09:56:53.189Z,23.73
2023-02-04T09:59:23.290Z,22.73
2023-02-04T10:01:58.593Z,23.35
2023-02-04T10:04:26.971Z,23.17
2023-02-04T10:06:58.565Z,22.58
2023-02-04T10:09:28.678Z,22.98
2023-02-04T10:11:57.250Z,22.33
2023-02-04T10:14:25.593Z,23.58
2023-02-04T10:16:59.148Z,23.52
2023-02-04T10:19:29.856Z,24.20
2023-02-04T10:21:58.717Z,24.13
2023-02-04T10:24:30.669Z,24.02
2023-02-04T10:27:09.578Z,22.23
2023-02-04T10:29:37.879Z,23.30
2023-02-04T10:32:06.326Z,23.50
2023-02-04T10:34:37.935Z,23.25
2023-02-04T10:37:19.385Z,22.83
2023-02-04T10:39:49.887Z,22.70
2023-02-04T10:42:23.234Z,23.60
2023-02-04T10:44:51.538Z,22.70
2023-02-04T10:47:21.484Z,22.48
2023-02-04T10:50:03.002Z,22.83
2023-02-04T10:52:36.631Z,23.48
2023-02-04T10:55:10.726Z,23.17
2023-02-04T10:57:40.982Z,22.63
2023-02-04T11:00:17.720Z,22.65
2023-02-04T11:02:49.544Z,24.02
2023-02-04T11:05:19.853Z,24.05
2023-02-04T11:07:49.428Z,23.20
2023-02-04T11:10:21.145Z,24.67
2023-02-04T11:13:01.729Z,23.50
2023-02-04T11:15:49.850Z,23.75
2023-02-04T11:18:34.044Z,23.15
2023-02-04T11:21:02.091Z,25.45
2023-02-04T11:23:37.641Z,24.65
2023-02-04T11:26:11.156Z,24.05
2023-02-04T11:28:49.985Z,24.27
2023-02-04T11:31:42.924Z,23.85
2023-02-04T11:34:14.456Z,22.15
2023-02-04T11:36:56.895Z,22.77
2023-02-04T11:39:29.995Z,23.10
2023-02-04T11:42:00.202Z,23.98
2023-02-04T11:44:28.946Z,24.55
2023-02-04T11:46:58.531Z,23.25
2023-02-04T11:49:28.506Z,22.40
2023-02-04T11:52:08.711Z,22.73
2023-02-04T11:54:38.810Z,21.92
2023-02-04T11:57:08.278Z,21.98
2023-02-04T11:59:36.514Z,21.65
2023-02-04T12:02:16.765Z,21.00
2023-02-04T12:04:55.708Z,21.77
2023-02-04T12:07:27.701Z,21.45
2023-02-04T12:09:56.651Z,21.75
2023-02-04T12:12:31.981Z,22.13
2023-02-04T12:15:04.799Z,21.55
2023-02-04T12:17:33.152Z,22.48
2023-02-04T12:20:01.352Z,22.00
2023-02-04T12:22:32.430Z,22.42
2023-02-04T12:25:01.185Z,23.35
2023-02-04T12:27:31.063Z,23.00
2023-02-04T12:29:59.423Z,22.52
2023-02-04T12:32:27.572Z,23.10
2023-02-04T12:34:55.622Z,23.25
2023-02-04T12:37:23.712Z,23.77
2023-02-04T12:39:51.911Z,24.42
2023-02-04T12:42:20.019Z,23.55
2023-02-04T12:44:49.442Z,26.50
2023-02-04T12:47:17.521Z,27.65
2023-02-04T12:49:46.676Z,23.38
2023-02-04T12:52:17.692Z,23.25
2023-02-04T12:54:45.861Z,22.35
2023-02-04T12:57:19.746Z,22.45
2023-02-04T12:59:53.302Z,22.35
2023-02-04T13:02:21.509Z,22.60
2023-02-04T13:04:49.668Z,23.60
2023-02-04T13:07:17.695Z,24.90
2023-02-04T13:09:46.277Z,25.08
2023-02-04T13:12:15.685Z,24.90
2023-02-04T13:14:44.503Z,24.88
2023-02-04T13:17:13.882Z,25.67
2023-02-04T13:19:41.944Z,24.83
2023-02-04T13:22:10.235Z,25.40
2023-02-04T13:24:38.765Z,25.10
2023-02-04T13:27:09.878Z,25.05
2023-02-04T13:29:38.329Z,24.67
2023-02-04T13:32:06.602Z,25.05
2023-02-04T13:34:36.459Z,25.63
2023-02-04T13:37:04.627Z,25.40
2023-02-04T13:39:32.805Z,25.60
2023-02-04T13:42:01.016Z,26.65
2023-02-04T13:44:29.466Z,26.80
2023-02-04T13:46:57.524Z,26.02
2023-02-04T13:49:25.702Z,28.50
2023-02-04T13:51:55.225Z,27.48
2023-02-04T13:54:23.319Z,27.88
2023-02-04T13:56:51.732Z,26.70
2023-02-04T13:59:21.072Z,27.67
2023-02-04T14:01:50.590Z,27.63
2023-02-04T14:04:18.625Z,26.00
2023-02-04T14:06:46.655Z,27.35
2023-02-04T14:09:16.196Z,26.58
2023-02-04T14:11:44.462Z,27.50
2023-02-04T14:14:12.501Z,27.40
2023-02-04T14:16:41.140Z,26.52
2023-02-04T14:19:09.538Z,26.95
2023-02-04T14:21:37.566Z,25.88
2023-02-04T14:24:05.873Z,25.48
2023-02-04T14:26:35.647Z,25.98
2023-02-04T14:29:04.517Z,26.23
2023-02-04T14:31:36.673Z,26.25
2023-02-04T14:34:04.827Z,26.77
2023-02-04T14:36:33.407Z,27.02
2023-02-04T14:39:01.453Z,27.42
2023-02-04T14:41:31.459Z,26.95
2023-02-04T14:44:00.947Z,26.02
2023-02-04T14:46:28.999Z,25.83
2023-02-04T14:48:57.273Z,27.48
2023-02-04T14:51:25.320Z,27.58
2023-02-04T14:53:53.654Z,27.17
2023-02-04T14:56:22.005Z,26.58
2023-02-04T14:58:50.109Z,27.27
2023-02-04T15:01:20.472Z,28.33
2023-02-04T15:03:48.630Z,29.13
2023-02-04T15:06:16.854Z,28.33
2023-02-04T15:08:45.555Z,29.00
2023-02-04T15:11:13.890Z,29.33
2023-02-04T15:13:42.401Z,29.50
2023-02-04T15:16:12.293Z,30.98
2023-02-04T15:18:42.005Z,30.83
2023-02-04T15:21:10.228Z,31.77
2023-02-04T15:23:38.313Z,31.25
2023-02-04T15:26:06.637Z,30.25
2023-02-04T15:28:34.901Z,30.20
2023-02-04T15:31:05.199Z,30.48
2023-02-04T15:33:33.859Z,28.88
2023-02-04T15:36:03.240Z,29.35
2023-02-04T15:38:33.807Z,29.58
2023-02-04T15:41:03.288Z,30.23
2023-02-04T15:43:31.830Z,29.52
2023-02-04T15:45:59.967Z,29.35
2023-02-04T15:48:28.443Z,30.08
2023-02-04T15:50:56.864Z,29.80
2023-02-04T15:53:26.463Z,29.58
2023-02-04T15:55:54.603Z,28.67
2023-02-04T15:58:24.575Z,29.27
2023-02-04T16:00:52.688Z,29.08
2023-02-04T16:03:20.752Z,28.15
2023-02-04T16:05:48.724Z,28.85
2023-02-04T16:08:16.980Z,28.00
2023-02-04T16:10:46.459Z,29.38
2023-02-04T16:13:14.535Z,28.77
2023-02-04T16:15:42.699Z,29.35
2023-02-04T16:18:10.711Z,28.88
2023-02-04T16:20:38.844Z,30.48
2023-02-04T16:23:07.589Z,29.52
2023-02-04T16:25:35.705Z,29.00
2023-02-04T16:28:05.660Z,30.10
2023-02-04T16:30:33.692Z,29.83
2023-02-04T16:33:01.794Z,28.20
2023-02-04T16:35:29.808Z,28.80
2023-02-04T16:37:58.154Z,29.73
2023-02-04T16:40:26.856Z,29.38
2023-02-04T16:42:54.912Z,29.77
2023-02-04T16:45:24.377Z,29.08
2023-02-04T16:47:52.385Z,30.40
2023-02-04T16:50:22.002Z,29.48
2023-02-04T16:52:50.253Z,28.95
2023-02-04T16:55:18.349Z,29.67
2023-02-04T16:57:46.407Z,28.88
2023-02-04T17:00:15.636Z,29.58
2023-02-04T17:02:45.592Z,29.67
2023-02-04T17:05:13.829Z,30.17
2023-02-04T17:07:44.464Z,30.33
2023-02-04T17:10:12.509Z,30.38
2023-02-04T17:12:40.734Z,29.88
2023-02-04T17:15:10.306Z,31.77
2023-02-04T17:17:38.224Z,30.58
2023-02-04T17:20:08.262Z,31.10
2023-02-04T17:22:36.297Z,31.88
2023-02-04T17:25:04.478Z,31.35
2023-02-04T17:27:33.002Z,30.48
2023-02-04T17:30:01.107Z,30.35
2023-02-04T17:32:29.315Z,31.00
2023-02-04T17:34:58.875Z,30.00
2023-02-04T17:37:29.205Z,30.55
2023-02-04T17:39:57.212Z,31.15
2023-02-04T17:42:25.189Z,31.38
2023-02-04T17:44:53.072Z,30.65
2023-02-04T17:47:21.085Z,31.08
2023-02-04T17:49:49.217Z,32.35
2023-02-04T17:52:17.265Z,31.17
2023-02-04T17:54:46.739Z,33.05
2023-02-04T17:57:19.221Z,33.00
2023-02-04T17:59:47.743Z,34.55
2023-02-04T18:02:24.994Z,34.33
2023-02-04T18:04:56.247Z,33.95
2023-02-04T18:07:25.608Z,33.65
2023-02-04T18:10:04.341Z,34.15
2023-02-04T18:12:35.374Z,34.35
2023-02-04T18:15:04.089Z,34.80
2023-02-04T18:17:32.663Z,34.55
2023-02-04T18:20:02.712Z,34.47
2023-02-04T18:22:30.772Z,34.15
2023-02-04T18:25:00.487Z,34.97
2023-02-04T18:27:32.790Z,33.58
2023-02-04T18:30:01.710Z,34.67
2023-02-04T18:32:38.377Z,33.90
2023-02-04T18:35:37.094Z,32.92
2023-02-04T18:38:21.082Z,34.65
2023-02-04T18:40:51.388Z,33.72
2023-02-04T18:43:25.882Z,32.05
2023-02-04T18:45:54.783Z,33.55
2023-02-04T18:49:01.374Z,33.75
2023-02-04T18:51:32.840Z,32.88
2023-02-04T18:54:18.744Z,34.05
2023-02-04T18:56:49.497Z,33.35
2023-02-04T18:59:18.693Z,34.30
2023-02-04T19:01:54.715Z,33.80
2023-02-04T19:04:25.342Z,33.78
2023-02-04T19:06:55.040Z,34.50
2023-02-04T19:09:33.070Z,34.45
2023-02-04T19:12:19.546Z,34.97
2023-02-04T19:14:47.607Z,35.72
2023-02-04T19:17:25.327Z,35.03
2023-02-04T19:19:57.822Z,34.85
2023-02-04T19:22:34.438Z,34.00
2023-02-04T19:25:26.041Z,33.70
2023-02-04T19:27:58.716Z,33.65
2023-02-04T19:30:51.666Z,34.30
2023-02-04T19:33:26.719Z,33.47
2023-02-04T19:35:54.702Z,34.05
2023-02-04T19:38:39.102Z,33.92
2023-02-04T19:41:25.322Z,33.05
2023-02-04T19:44:21.660Z,33.85
2023-02-04T19:46:53.322Z,33.10
2023-02-04T19:49:24.882Z,33.67
2023-02-04T19:51:54.565Z,33.70
2023-02-04T19:54:25.142Z,33.92
2023-02-04T19:56:55.060Z,33.55
2023-02-04T19:59:28.270Z,33.55
2023-02-04T20:02:03.699Z,33.60
2023-02-04T20:04:37.374Z,34.70
2023-02-04T20:07:19.785Z,33.78
2023-02-04T20:09:48.317Z,32.55
2023-02-04T20:12:17.923Z,35.58
2023-02-04T20:14:52.774Z,35.10
2023-02-04T20:17:24.675Z,34.85
2023-02-04T20:19:52.792Z,35.05
2023-02-04T20:22:44.526Z,34.17
2023-02-04T20:25:38.772Z,35.13
2023-02-04T20:28:26.737Z,34.80
2023-02-04T20:30:58.875Z,36.17
2023-02-04T20:33:37.137Z,36.17
2023-02-04T20:36:26.019Z,35.92
2023-02-04T20:39:00.110Z,35.72
2023-02-04T20:41:28.180Z,36.20
2023-02-04T20:43:58.116Z,36.42
2023-02-04T20:46:30.878Z,35.60
2023-02-04T20:48:59.075Z,33.92
2023-02-04T20:51:27.796Z,34.75
2023-02-04T20:53:58.302Z,34.92
2023-02-04T20:56:27.963Z,33.35
2023-02-04T20:59:04.040Z,33.58
2023-02-04T21:01:36.901Z,33.40
2023-02-04T21:04:19.355Z,32.75
2023-02-04T21:06:47.605Z,34.13
2023-02-04T21:09:23.619Z,34.92
2023-02-04T21:11:52.658Z,33.65
2023-02-04T21:14:20.723Z,33.40
2023-02-04T21:16:50.778Z,34.35
2023-02-04T21:19:18.812Z,34.92
2023-02-04T21:21:46.865Z,34.72
2023-02-04T21:24:15.643Z,34.35
2023-02-04T21:26:44.824Z,34.25
2023-02-04T21:29:12.919Z,34.75
2023-02-04T21:31:41.157Z,34.95
2023-02-04T21:34:10.906Z,34.30
2023-02-04T21:36:39.616Z,34.35
2023-02-04T21:39:07.670Z,34.58
2023-02-04T21:41:35.660Z,34.42
2023-02-04T21:44:03.691Z,34.25
2023-02-04T21:46:32.775Z,35.00
2023-02-04T21:49:00.939Z,34.22
2023-02-04T21:51:30.684Z,33.97
2023-02-04T21:54:00.128Z,34.53
2023-02-04T21:56:28.363Z,34.53
2023-02-04T21:58:57.941Z,33.33
2023-02-04T22:01:26.125Z,34.25
2023-02-04T22:03:54.410Z,34.97
2023-02-04T22:06:22.764Z,34.55
2023-02-04T22:08:52.395Z,35.05
2023-02-04T22:11:20.439Z,34.50
2023-02-04T22:13:48.577Z,34.33
2023-02-04T22:16:16.704Z,36.38
2023-02-04T22:18:44.737Z,35.20
2023-02-04T22:21:12.790Z,34.65
2023-02-04T22:23:40.835Z,34.55
2023-02-04T22:26:10.254Z,35.88
2023-02-04T22:28:38.406Z,34.35
2023-02-04T22:31:08.470Z,34.45
2023-02-04T22:33:36.561Z,34.70
2023-02-04T22:36:04.874Z,35.35
2023-02-04T22:38:33.334Z,35.20
2023-02-04T22:41:01.543Z,34.97
2023-02-04T22:43:33.372Z,33.78
2023-02-04T22:46:04.321Z,34.60
2023-02-04T22:48:32.707Z,33.78
2023-02-04T22:51:03.347Z,33.78
2023-02-04T22:53:31.709Z,33.50
2023-02-04T22:55:59.711Z,32.95
2023-02-04T22:58:27.716Z,33.30
2023-02-04T23:00:57.444Z,31.80
2023-02-04T23:03:25.674Z,31.35
2023-02-04T23:05:54.187Z,32.10
2023-02-04T23:08:24.723Z,33.08
2023-02-04T23:10:52.812Z,31.67
2023-02-04T23:13:20.969Z,31.75
2023-02-04T23:15:49.114Z,31.52
2023-02-04T23:18:18.763Z,31.52
2023-02-04T23:20:46.825Z,31.60
2023-02-04T23:23:17.515Z,31.80
2023-02-04T23:25:46.162Z,31.60
2023-02-04T23:28:14.752Z,31.45
2023-02-04T23:30:43.154Z,31.67
2023-02-04T23:33:12.634Z,30.95
2023-02-04T23:35:42.082Z,31.48
2023-02-04T23:38:10.112Z,30.13
2023-02-04T23:40:38.155Z,29.63
2023-02-04T23:43:06.289Z,29.85
2023-02-04T23:45:34.846Z,29.48
2023-02-04T23:48:03.163Z,29.70
2023-02-04T23:50:31.530Z,30.55
2023-02-04T23:53:01.285Z,29.77
2023-02-04T23:55:29.250Z,30.50
2023-02-04T23:57:57.812Z,30.30
